createdAt,value
2017-08-23T00:01:09.856Z,59.70
2017-08-23T00:03:36.204Z,59.90
2017-08-23T00:06:02.558Z,59.70
2017-08-23T00:08:28.892Z,60.30
2017-08-23T00:10:55.391Z,60.40
2017-08-23T00:13:22.084Z,61.40
2017-08-23T00:15:48.945Z,60.70
2017-08-23T00:18:15.501Z,60.60
2017-08-23T00:20:42.033Z,60.60
2017-08-23T00:23:08.615Z,61.20
2017-08-23T00:25:35.151Z,61.70
2017-08-23T00:28:01.680Z,59.90
2017-08-23T00:30:28.253Z,61.30
2017-08-23T00:32:54.808Z,60.50
2017-08-23T00:35:21.357Z,60.90
2017-08-23T00:37:47.915Z,61.70
2017-08-23T00:40:14.446Z,61.50
2017-08-23T00:42:41.049Z,61.10
2017-08-23T00:45:07.585Z,61.30
2017-08-23T00:47:35.228Z,61.70
2017-08-23T00:50:02.861Z,61.40
2017-08-23T00:52:30.798Z,61.50
2017-08-23T00:54:59.437Z,60.70
2017-08-23T00:57:26.377Z,62.30
2017-08-23T00:59:53.049Z,61.10
2017-08-23T01:02:19.975Z,61.90
2017-08-23T01:07:50.986Z,61.60
2017-08-23T01:10:17.639Z,61.80
2017-08-23T01:12:44.385Z,62.60
2017-08-23T01:15:11.172Z,61.80
2017-08-23T01:17:37.889Z,61.20
2017-08-23T01:20:04.416Z,61.90
2017-08-23T01:22:30.981Z,62.70
2017-08-23T01:24:57.451Z,62.20
2017-08-23T01:27:23.984Z,61.30
2017-08-23T01:29:50.624Z,62.20
2017-08-23T01:32:17.293Z,62.30
2017-08-23T01:37:15.578Z,62.20
2017-08-23T01:39:42.176Z,62.70
2017-08-23T01:42:08.769Z,63.20
2017-08-23T01:44:35.387Z,63.60
2017-08-23T01:47:01.972Z,62.90
2017-08-23T01:49:28.545Z,63.30
2017-08-23T01:51:54.874Z,62.00
2017-08-23T01:54:21.181Z,61.80
2017-08-23T01:56:47.504Z,62.60
2017-08-23T01:59:13.813Z,61.60
2017-08-23T02:01:40.134Z,63.20
2017-08-23T02:04:06.966Z,62.40
2017-08-23T02:06:33.290Z,63.20
2017-08-23T02:08:59.608Z,62.50
2017-08-23T02:11:25.959Z,63.10
2017-08-23T02:13:52.275Z,62.50
2017-08-23T02:16:18.636Z,63.20
2017-08-23T02:18:44.980Z,62.70
2017-08-23T02:21:11.302Z,62.30
2017-08-23T02:23:37.605Z,63.20
2017-08-23T02:26:03.965Z,62.50
2017-08-23T02:28:30.281Z,62.90
2017-08-23T02:30:59.656Z,63.20
2017-08-23T02:33:26.282Z,63.40
2017-08-23T02:35:52.819Z,62.80
2017-08-23T02:38:19.362Z,63.00
2017-08-23T02:40:45.902Z,62.40
2017-08-23T02:43:12.445Z,62.90
2017-08-23T02:45:39.002Z,62.80
2017-08-23T02:48:08.809Z,63.00
2017-08-23T02:50:35.340Z,63.40
2017-08-23T02:53:01.852Z,63.30
2017-08-23T02:55:28.415Z,62.90
2017-08-23T02:57:54.928Z,63.10
2017-08-23T03:00:21.473Z,62.60
2017-08-23T03:02:47.977Z,62.90
2017-08-23T03:05:14.520Z,62.90
2017-08-23T03:07:41.068Z,62.70
2017-08-23T03:10:07.892Z,62.60
2017-08-23T03:12:34.446Z,62.10
2017-08-23T03:15:01.008Z,62.80
2017-08-23T03:17:27.524Z,62.80
2017-08-23T03:19:54.054Z,62.70
2017-08-23T03:22:20.633Z,63.10
2017-08-23T03:24:47.150Z,62.70
2017-08-23T03:27:13.691Z,62.60
2017-08-23T03:29:40.225Z,63.50
2017-08-23T03:32:08.712Z,63.30
2017-08-23T03:34:35.228Z,63.10
2017-08-23T03:37:01.777Z,63.30
2017-08-23T03:39:28.303Z,62.60
2017-08-23T03:41:54.892Z,63.10
2017-08-23T03:44:21.198Z,62.90
2017-08-23T03:46:47.936Z,63.10
2017-08-23T03:49:14.260Z,63.50
2017-08-23T03:51:40.590Z,62.90
2017-08-23T03:54:06.923Z,63.40
2017-08-23T03:56:33.285Z,63.00
2017-08-23T03:58:59.604Z,63.00
2017-08-23T04:01:25.939Z,63.30
2017-08-23T04:03:52.260Z,62.50
2017-08-23T04:06:18.568Z,63.00
2017-08-23T04:08:44.885Z,63.40
2017-08-23T04:11:11.192Z,62.90
2017-08-23T04:13:37.497Z,63.50
2017-08-23T04:16:03.811Z,63.90
2017-08-23T04:18:30.144Z,63.60
2017-08-23T04:20:56.453Z,63.10
2017-08-23T04:23:23.046Z,63.80
2017-08-23T04:25:49.576Z,64.10
2017-08-23T04:28:16.122Z,63.60
2017-08-23T04:30:42.660Z,62.80
2017-08-23T04:33:09.972Z,63.30
2017-08-23T04:35:36.591Z,63.30
2017-08-23T04:38:04.061Z,63.20
2017-08-23T04:40:30.599Z,62.90
2017-08-23T04:42:57.148Z,63.20
2017-08-23T04:45:23.712Z,63.50
2017-08-23T04:47:50.227Z,63.50
2017-08-23T04:50:17.482Z,63.90
2017-08-23T04:52:44.424Z,64.70
2017-08-23T04:55:11.044Z,64.30
2017-08-23T04:57:37.775Z,63.90
2017-08-23T05:00:04.306Z,64.10
2017-08-23T05:02:30.836Z,63.20
2017-08-23T05:04:57.393Z,64.10
2017-08-23T05:07:23.932Z,65.00
2017-08-23T05:09:50.464Z,64.80
2017-08-23T05:12:16.954Z,65.20
2017-08-23T05:14:43.488Z,64.90
2017-08-23T05:17:10.013Z,64.00
2017-08-23T05:19:36.559Z,64.20
2017-08-23T05:22:03.073Z,64.70
2017-08-23T05:24:29.607Z,63.70
2017-08-23T05:26:56.144Z,65.30
2017-08-23T05:29:22.441Z,63.40
2017-08-23T05:31:48.759Z,64.60
2017-08-23T05:34:15.089Z,63.30
2017-08-23T05:36:41.396Z,64.10
2017-08-23T05:39:07.718Z,63.30
2017-08-23T05:41:35.301Z,62.80
2017-08-23T05:44:01.785Z,64.40
2017-08-23T05:46:28.095Z,64.80
2017-08-23T05:48:54.408Z,63.50
2017-08-23T05:51:20.753Z,62.30
2017-08-23T05:53:47.048Z,62.40
2017-08-23T05:56:13.354Z,63.20
2017-08-23T05:58:39.764Z,61.20
2017-08-23T06:01:06.094Z,62.10
2017-08-23T06:03:32.637Z,62.30
2017-08-23T06:05:59.152Z,61.70
2017-08-23T06:08:25.697Z,61.50
2017-08-23T06:10:52.204Z,61.80
2017-08-23T06:13:18.866Z,61.40
2017-08-23T06:15:45.403Z,61.10
2017-08-23T06:18:11.965Z,60.40
2017-08-23T06:20:38.561Z,60.30
2017-08-23T06:23:05.009Z,61.10
2017-08-23T06:25:31.527Z,60.30
2017-08-23T06:27:58.120Z,60.70
2017-08-23T06:30:24.656Z,59.00
2017-08-23T06:32:51.244Z,59.00
2017-08-23T06:35:17.630Z,59.70
2017-08-23T06:37:43.945Z,59.20
2017-08-23T06:40:10.277Z,59.20
2017-08-23T06:42:36.603Z,59.30
2017-08-23T06:45:02.926Z,57.70
2017-08-23T06:47:29.230Z,58.40
2017-08-23T06:49:55.533Z,59.40
2017-08-23T06:52:22.426Z,59.60
2017-08-23T06:54:48.752Z,58.60
2017-08-23T06:57:15.385Z,57.70
2017-08-23T06:59:41.987Z,58.40
2017-08-23T07:02:08.331Z,57.20
2017-08-23T07:04:35.394Z,56.90
2017-08-23T07:07:01.702Z,56.80
2017-08-23T07:09:28.070Z,57.50
2017-08-23T07:11:54.364Z,57.80
2017-08-23T07:14:21.332Z,56.50
2017-08-23T07:16:48.018Z,56.70
2017-08-23T07:19:14.585Z,56.50
2017-08-23T07:21:41.137Z,57.00
2017-08-23T07:24:07.676Z,57.00
2017-08-23T07:26:34.196Z,56.40
2017-08-23T07:29:00.717Z,56.40
2017-08-23T07:31:27.457Z,55.90
2017-08-23T07:33:54.014Z,56.40
2017-08-23T07:36:20.565Z,56.20
2017-08-23T07:38:47.314Z,55.50
2017-08-23T07:41:13.835Z,53.80
2017-08-23T07:43:40.416Z,55.40
2017-08-23T07:46:06.945Z,55.30
2017-08-23T07:48:33.488Z,55.70
2017-08-23T07:51:00.012Z,54.10
2017-08-23T07:53:28.032Z,53.70
2017-08-23T07:55:54.567Z,53.90
2017-08-23T07:58:21.140Z,53.70
2017-08-23T08:00:47.809Z,54.10
2017-08-23T08:03:14.506Z,53.50
2017-08-23T08:05:41.068Z,53.00
2017-08-23T08:08:07.665Z,52.60
2017-08-23T08:10:37.311Z,51.40
2017-08-23T08:13:04.919Z,51.40
2017-08-23T08:15:31.432Z,49.50
2017-08-23T08:17:57.965Z,50.10
2017-08-23T08:20:24.297Z,49.20
2017-08-23T08:22:50.620Z,47.60
2017-08-23T08:25:16.958Z,45.40
2017-08-23T08:27:45.305Z,43.40
2017-08-23T08:30:11.698Z,40.40
2017-08-23T08:32:38.007Z,40.30
2017-08-23T08:35:04.315Z,38.40
2017-08-23T08:37:30.620Z,34.30
2017-08-23T08:39:56.939Z,35.60
2017-08-23T08:42:23.378Z,34.00
2017-08-23T08:44:49.717Z,33.90
2017-08-23T08:47:21.554Z,33.80
2017-08-23T08:49:47.897Z,34.00
2017-08-23T08:52:14.208Z,35.50
2017-08-23T08:54:40.544Z,34.40
2017-08-23T08:57:06.870Z,35.70
2017-08-23T08:59:33.183Z,35.40
2017-08-23T09:04:30.700Z,38.40
2017-08-23T09:06:57.005Z,39.90
2017-08-23T09:09:23.399Z,41.00
2017-08-23T09:11:49.704Z,41.90
2017-08-23T09:14:16.022Z,41.50
2017-08-23T09:16:42.610Z,40.70
2017-08-23T09:21:42.389Z,40.40
2017-08-23T09:24:08.953Z,42.60
2017-08-23T09:26:35.468Z,42.90
2017-08-23T09:29:02.010Z,40.40
2017-08-23T09:31:28.585Z,40.50
2017-08-23T09:33:55.125Z,40.20
2017-08-23T09:36:21.682Z,40.20
2017-08-23T09:38:49.681Z,41.10
2017-08-23T09:41:16.250Z,41.60
2017-08-23T09:43:42.777Z,41.30
2017-08-23T09:46:09.288Z,43.00
2017-08-23T09:48:35.817Z,43.20
2017-08-23T09:51:02.383Z,42.50
2017-08-23T09:53:28.927Z,40.60
2017-08-23T09:55:55.457Z,38.80
2017-08-23T09:58:23.880Z,40.50
2017-08-23T10:00:50.417Z,38.80
2017-08-23T10:03:17.027Z,38.70
2017-08-23T10:05:44.404Z,38.60
2017-08-23T10:08:10.882Z,38.50
2017-08-23T10:10:37.480Z,38.50
2017-08-23T10:13:03.985Z,38.50
2017-08-23T10:15:30.492Z,37.00
2017-08-23T10:18:00.048Z,36.40
2017-08-23T10:20:26.659Z,40.00
2017-08-23T10:22:52.986Z,36.70
2017-08-23T10:25:19.290Z,36.40
2017-08-23T10:27:45.609Z,39.20
2017-08-23T10:30:11.916Z,38.20
2017-08-23T10:32:38.207Z,37.80
2017-08-23T10:35:09.157Z,36.10
2017-08-23T10:37:35.478Z,36.40
2017-08-23T10:40:01.805Z,37.50
2017-08-23T10:42:28.111Z,35.50
2017-08-23T10:44:54.444Z,39.30
2017-08-23T10:47:20.791Z,35.40
2017-08-23T10:49:47.096Z,36.70
2017-08-23T10:52:13.433Z,36.40
2017-08-23T10:57:13.013Z,39.20
2017-08-23T10:59:39.454Z,39.90
2017-08-23T11:02:06.339Z,38.30
2017-08-23T11:04:32.672Z,38.70
2017-08-23T11:06:58.979Z,36.60
2017-08-23T11:09:29.773Z,38.50
2017-08-23T11:11:56.284Z,35.80
2017-08-23T11:14:22.844Z,35.70
2017-08-23T11:16:49.437Z,38.00
2017-08-23T11:19:16.004Z,37.70
2017-08-23T11:21:42.814Z,36.40
2017-08-23T11:24:09.361Z,36.20
2017-08-23T11:26:35.901Z,38.00
2017-08-23T11:29:05.148Z,34.90
2017-08-23T11:31:33.995Z,35.70
2017-08-23T11:34:00.589Z,37.50
2017-08-23T11:36:27.208Z,33.90
2017-08-23T11:38:53.748Z,35.00
2017-08-23T11:41:20.293Z,35.20
2017-08-23T11:46:17.830Z,34.90
2017-08-23T11:48:44.262Z,33.20
2017-08-23T11:51:10.665Z,33.70
2017-08-23T11:53:36.989Z,33.30
2017-08-23T11:56:03.314Z,36.70
2017-08-23T11:58:29.629Z,35.20
2017-08-23T12:00:58.592Z,36.50
2017-08-23T12:03:25.158Z,36.00
2017-08-23T12:05:51.764Z,34.40
2017-08-23T12:08:18.370Z,34.70
2017-08-23T12:10:44.928Z,35.30
2017-08-23T12:13:11.526Z,35.90
2017-08-23T12:15:43.355Z,36.90
2017-08-23T12:18:10.060Z,34.10
2017-08-23T12:20:36.590Z,36.40
2017-08-23T12:23:03.122Z,36.00
2017-08-23T12:25:29.621Z,35.80
2017-08-23T12:27:56.233Z,33.10
2017-08-23T12:30:27.488Z,33.90
2017-08-23T12:32:54.045Z,33.50
2017-08-23T12:35:20.620Z,33.30
2017-08-23T12:37:47.164Z,35.40
2017-08-23T12:40:13.469Z,35.60
2017-08-23T12:42:39.795Z,33.40
2017-08-23T12:45:06.091Z,32.00
2017-08-23T12:47:32.387Z,33.10
2017-08-23T12:50:02.219Z,34.10
2017-08-23T12:52:28.548Z,33.30
2017-08-23T12:54:55.057Z,34.40
2017-08-23T12:57:21.588Z,32.30
2017-08-23T12:59:48.100Z,32.00
2017-08-23T13:02:14.669Z,33.40
2017-08-23T13:04:41.211Z,33.00
2017-08-23T13:07:09.709Z,33.50
2017-08-23T13:09:36.225Z,30.30
2017-08-23T13:12:02.764Z,32.40
2017-08-23T13:14:29.189Z,30.50
2017-08-23T13:16:55.706Z,32.50
2017-08-23T13:19:22.217Z,33.20
2017-08-23T13:21:48.512Z,34.20
2017-08-23T13:24:19.376Z,33.30
2017-08-23T13:26:45.672Z,33.40
2017-08-23T13:29:12.079Z,32.50
2017-08-23T13:31:38.380Z,33.50
2017-08-23T13:34:04.697Z,29.60
2017-08-23T13:36:31.032Z,31.20
2017-08-23T13:38:57.346Z,31.30
2017-08-23T13:41:25.439Z,33.40
2017-08-23T13:43:52.607Z,30.00
2017-08-23T13:46:18.945Z,30.80
2017-08-23T13:48:45.264Z,30.00
2017-08-23T13:51:11.584Z,30.00
2017-08-23T13:53:38.394Z,31.80
2017-08-23T13:56:04.933Z,30.00
2017-08-23T13:58:31.458Z,32.20
2017-08-23T14:00:58.015Z,30.40
2017-08-23T14:03:24.617Z,30.30
2017-08-23T14:05:51.159Z,29.80
2017-08-23T14:08:17.714Z,31.70
2017-08-23T14:10:44.256Z,30.70
2017-08-23T14:13:10.793Z,31.60
2017-08-23T14:15:37.362Z,29.80
2017-08-23T14:18:03.958Z,30.90
2017-08-23T14:20:35.688Z,29.90
2017-08-23T14:23:02.282Z,32.70
2017-08-23T14:25:28.796Z,30.50
2017-08-23T14:27:55.378Z,30.10
2017-08-23T14:30:21.869Z,31.30
2017-08-23T14:32:48.437Z,29.60
2017-08-23T14:35:14.745Z,30.00
2017-08-23T14:37:41.081Z,30.60
2017-08-23T14:40:07.833Z,29.60
2017-08-23T14:42:34.123Z,33.30
2017-08-23T14:45:00.450Z,30.10
2017-08-23T14:47:26.772Z,30.80
2017-08-23T14:49:53.078Z,31.10
2017-08-23T14:52:19.412Z,31.10
2017-08-23T14:54:45.743Z,32.50
2017-08-23T14:57:12.233Z,30.90
2017-08-23T14:59:38.591Z,31.50
2017-08-23T15:02:04.939Z,33.40
2017-08-23T15:04:31.270Z,32.80
2017-08-23T15:06:57.593Z,33.50
2017-08-23T15:09:24.205Z,34.50
2017-08-23T15:11:50.762Z,33.40
2017-08-23T15:14:17.317Z,35.30
2017-08-23T15:16:43.842Z,35.00
2017-08-23T15:19:10.480Z,33.40
2017-08-23T15:21:37.004Z,33.50
2017-08-23T15:24:03.564Z,33.30
2017-08-23T15:26:30.587Z,33.40
2017-08-23T15:28:57.148Z,33.20
2017-08-23T15:31:23.700Z,32.20
2017-08-23T15:33:50.253Z,32.80
2017-08-23T15:36:17.976Z,31.10
2017-08-23T15:38:44.421Z,33.50
2017-08-23T15:41:10.980Z,33.30
2017-08-23T15:43:40.182Z,31.20
2017-08-23T15:46:06.765Z,34.60
2017-08-23T15:48:33.313Z,31.10
2017-08-23T15:50:59.887Z,31.80
2017-08-23T15:53:31.365Z,30.90
2017-08-23T15:55:58.118Z,31.60
2017-08-23T15:58:24.501Z,33.00
2017-08-23T16:00:50.859Z,34.60
2017-08-23T16:03:17.206Z,35.70
2017-08-23T16:05:43.591Z,36.60
2017-08-23T16:08:10.138Z,35.80
2017-08-23T16:10:40.419Z,35.40
2017-08-23T16:13:06.804Z,35.20
2017-08-23T16:15:33.356Z,37.40
2017-08-23T16:17:59.905Z,34.30
2017-08-23T16:20:27.269Z,37.70
2017-08-23T16:22:54.540Z,36.70
2017-08-23T16:25:21.576Z,36.70
2017-08-23T16:27:49.119Z,39.50
2017-08-23T16:30:15.673Z,37.60
2017-08-23T16:32:43.150Z,39.30
2017-08-23T16:35:09.768Z,40.80
2017-08-23T16:37:36.272Z,39.20
2017-08-23T16:40:06.325Z,41.40
2017-08-23T16:42:33.074Z,39.00
2017-08-23T16:44:59.398Z,39.80
2017-08-23T16:47:25.712Z,41.10
2017-08-23T16:49:52.036Z,36.60
2017-08-23T16:52:18.344Z,39.40
2017-08-23T16:54:46.316Z,40.20
2017-08-23T16:57:12.757Z,40.70
2017-08-23T16:59:39.299Z,44.10
2017-08-23T17:02:05.809Z,42.40
2017-08-23T17:04:32.324Z,42.70
2017-08-23T17:07:01.995Z,42.60
2017-08-23T17:09:28.444Z,43.10
2017-08-23T17:12:03.008Z,42.60
2017-08-23T17:14:38.099Z,43.80
2017-08-23T17:17:04.693Z,43.70
2017-08-23T17:19:31.214Z,42.70
2017-08-23T17:21:57.593Z,43.40
2017-08-23T17:24:23.990Z,43.60
2017-08-23T17:26:50.425Z,43.50
2017-08-23T17:29:16.812Z,45.10
2017-08-23T17:31:43.204Z,43.50
2017-08-23T17:34:09.577Z,44.70
2017-08-23T17:36:35.910Z,44.20
2017-08-23T17:39:02.310Z,43.20
2017-08-23T17:41:28.638Z,44.20
2017-08-23T17:43:55.225Z,44.90
2017-08-23T17:46:22.318Z,44.80
2017-08-23T17:48:48.864Z,46.60
2017-08-23T17:51:15.390Z,45.20
2017-08-23T17:53:41.933Z,46.40
2017-08-23T17:56:08.509Z,47.40
2017-08-23T17:58:35.109Z,46.80
2017-08-23T18:01:01.661Z,47.70
2017-08-23T18:03:28.229Z,47.40
2017-08-23T18:05:54.827Z,47.50
2017-08-23T18:08:21.333Z,47.40
2017-08-23T18:10:47.953Z,48.00
2017-08-23T18:13:14.486Z,47.70
2017-08-23T18:15:41.065Z,48.60
2017-08-23T18:18:07.621Z,49.70
2017-08-23T18:20:34.202Z,49.40
2017-08-23T18:23:00.823Z,48.40
2017-08-23T18:25:27.378Z,48.40
2017-08-23T18:27:53.892Z,48.60
2017-08-23T18:30:20.456Z,49.60
2017-08-23T18:32:46.944Z,49.60
2017-08-23T18:35:13.490Z,51.30
2017-08-23T18:37:40.122Z,52.00
2017-08-23T18:40:06.645Z,50.60
2017-08-23T18:42:33.152Z,50.20
2017-08-23T18:44:59.676Z,51.10
2017-08-23T18:47:26.180Z,52.40
2017-08-23T18:49:52.504Z,51.10
2017-08-23T18:52:18.831Z,51.70
2017-08-23T18:54:45.141Z,51.50
2017-08-23T18:57:11.468Z,51.80
2017-08-23T18:59:38.281Z,52.30
2017-08-23T19:02:04.629Z,52.70
2017-08-23T19:04:30.924Z,52.30
2017-08-23T19:06:57.344Z,52.40
2017-08-23T19:09:24.078Z,53.30
2017-08-23T19:11:50.406Z,53.10
2017-08-23T19:14:16.760Z,53.20
2017-08-23T19:16:43.096Z,53.20
2017-08-23T19:19:09.825Z,53.20
2017-08-23T19:21:36.244Z,53.20
2017-08-23T19:24:02.590Z,53.10
2017-08-23T19:26:29.020Z,53.10
2017-08-23T19:28:55.473Z,53.00
2017-08-23T19:31:22.385Z,52.90
2017-08-23T19:33:48.926Z,53.00
2017-08-23T19:36:15.502Z,52.90
2017-08-23T19:38:42.113Z,52.80
2017-08-23T19:41:08.711Z,53.90
2017-08-23T19:43:35.384Z,54.00
2017-08-23T19:46:01.900Z,54.30
2017-08-23T19:48:28.459Z,55.00
2017-08-23T19:50:55.072Z,54.50
2017-08-23T19:53:22.001Z,54.80
2017-08-23T19:55:49.516Z,55.80
2017-08-23T19:58:16.614Z,55.20
2017-08-23T20:00:44.184Z,55.80
2017-08-23T20:03:11.340Z,55.60
2017-08-23T20:05:38.936Z,54.60
2017-08-23T20:08:05.858Z,55.30
2017-08-23T20:10:33.419Z,55.80
2017-08-23T20:13:00.297Z,55.40
2017-08-23T20:15:27.784Z,55.70
2017-08-23T20:17:55.200Z,54.10
2017-08-23T20:20:22.893Z,55.00
2017-08-23T20:22:49.721Z,54.40
2017-08-23T20:25:16.261Z,53.80
2017-08-23T20:27:43.007Z,55.40
2017-08-23T20:30:09.613Z,55.90
2017-08-23T20:32:36.291Z,56.60
2017-08-23T20:35:03.680Z,55.90
2017-08-23T20:37:30.288Z,55.90
2017-08-23T20:39:57.279Z,55.30
2017-08-23T20:42:23.840Z,55.50
2017-08-23T20:44:50.169Z,55.30
2017-08-23T20:47:16.660Z,55.50
2017-08-23T20:49:42.944Z,54.40
2017-08-23T20:52:09.805Z,54.30
2017-08-23T20:54:36.105Z,53.70
2017-08-23T20:57:02.545Z,53.70
2017-08-23T20:59:28.836Z,53.50
2017-08-23T21:01:55.135Z,53.50
2017-08-23T21:04:21.424Z,53.00
2017-08-23T21:06:47.724Z,53.70
2017-08-23T21:09:14.097Z,54.10
2017-08-23T21:11:40.533Z,52.10
2017-08-23T21:14:07.069Z,52.20
2017-08-23T21:16:33.525Z,53.00
2017-08-23T21:18:59.864Z,52.70
2017-08-23T21:21:26.207Z,50.60
2017-08-23T21:23:52.865Z,51.10
2017-08-23T21:26:19.479Z,51.30
2017-08-23T21:28:45.985Z,50.40
2017-08-23T21:31:12.664Z,50.60
2017-08-23T21:33:39.257Z,50.90
2017-08-23T21:36:05.958Z,49.90
2017-08-23T21:38:32.580Z,50.00
2017-08-23T21:40:59.093Z,50.80
2017-08-23T21:43:25.732Z,49.70
2017-08-23T21:45:52.272Z,49.50
2017-08-23T21:48:18.803Z,49.20
2017-08-23T21:50:46.744Z,49.10
2017-08-23T21:53:13.370Z,48.80
2017-08-23T21:55:39.976Z,49.10
2017-08-23T21:58:06.536Z,50.00
2017-08-23T22:00:33.088Z,48.70
2017-08-23T22:02:59.602Z,48.60
2017-08-23T22:05:26.239Z,49.80
2017-08-23T22:07:52.907Z,49.10
2017-08-23T22:10:19.516Z,49.80
2017-08-23T22:12:46.025Z,49.00
2017-08-23T22:15:12.604Z,49.60
2017-08-23T22:17:39.862Z,49.90
2017-08-23T22:20:06.404Z,49.80
2017-08-23T22:22:32.908Z,49.80
2017-08-23T22:24:59.433Z,48.70
2017-08-23T22:27:25.933Z,49.20
2017-08-23T22:29:52.253Z,49.00
2017-08-23T22:32:18.657Z,49.50
2017-08-23T22:34:45.023Z,49.40
2017-08-23T22:37:11.372Z,49.50
2017-08-23T22:39:37.676Z,49.60
2017-08-23T22:42:04.037Z,48.60
2017-08-23T22:44:30.357Z,49.00
2017-08-23T22:46:56.691Z,49.80
2017-08-23T22:49:23.006Z,50.20
2017-08-23T22:51:49.353Z,49.30
2017-08-23T22:54:15.809Z,50.00
2017-08-23T22:56:42.121Z,50.80
2017-08-23T22:59:08.436Z,50.70
2017-08-23T23:01:34.991Z,49.70
2017-08-23T23:04:01.536Z,50.40
2017-08-23T23:06:28.067Z,50.20
2017-08-23T23:08:54.615Z,49.70
2017-08-23T23:11:21.267Z,49.50
2017-08-23T23:13:47.789Z,49.50
2017-08-23T23:16:14.319Z,48.50
2017-08-23T23:18:40.939Z,49.40
2017-08-23T23:21:07.507Z,48.00
2017-08-23T23:23:34.033Z,48.00
2017-08-23T23:26:00.596Z,48.30
2017-08-23T23:28:27.164Z,47.90
2017-08-23T23:30:53.682Z,48.40
2017-08-23T23:33:20.222Z,48.10
2017-08-23T23:35:46.907Z,48.00
2017-08-23T23:38:13.460Z,47.60
2017-08-23T23:40:39.965Z,47.80
2017-08-23T23:43:06.468Z,47.50
2017-08-23T23:45:32.990Z,47.70
2017-08-23T23:47:59.504Z,47.90
2017-08-23T23:50:26.121Z,48.30
2017-08-23T23:52:52.449Z,48.00
2017-08-23T23:55:18.766Z,47.60
2017-08-23T23:57:45.133Z,48.00
